Share

Edgerton, WY (82635)

Natrona County International (KCPR) Elev 5289 ft | 42.90 °N, 106.47 °W | Change Station
Active Advisory: Special Statement Active Notice: Public Information Statement

Current weather conditions updated 49 minutes ago

Clear
Clear
61 °F
Feels Like 61 °F
N
24
Wind Variable Wind from West
Gusts 33 mph
Sunrise 6:17 AM
Sunset 7:51 PM
Moon Waning Gibbous

Tomorrow is forecast to be Much Cooler than today.

Pressure 29.70 in
Visibility 10.0 miles
Clouds Clear
Dew Point 32 °F
Humidity 34%
Rainfall 0.00 in
Snow Depth Not available.
UV 1 out of 16
Pollen 11.60 out of 12
Air Quality Not available.
Flu Activity Sporadic
METAR KCPR 190053Z 26021G29KT 10SM CLR 16/00 A2982 RMK AO2 PK WND 26037/0024 SLP057 T01610000

More Conditions Fewer Conditions

Pressure 29.70 in
Visibility 10.0 miles
Clouds Clear
Dew Point 32 °F
Humidity 34%
Rainfall 0.00 in
Snow Depth Not available.
UV 1 out of 16
Pollen 11.60 out of 12
Air Quality Not available.
Flu Activity Sporadic
METAR KCPR 190053Z 26021G29KT 10SM CLR 16/00 A2982 RMK AO2 PK WND 26037/0024 SLP057 T01610000

More Conditions Fewer Conditions

10-Day Weather Forecast

Almanac

Astronomy

Apr. 18, 2014 Rise Set
Actual Time 6:17 AM MDT 7:51 PM MDT
Civil Twilight 5:47 AM MDT 8:21 PM MDT
Nautical Twilight 5:11 AM MDT 8:58 PM MDT
Astronomical Twilight 4:32 AM MDT 9:37 PM MDT
Moon 11:43 PM MDT (4/18) 8:38 AM MDT (4/18)
Length of Visible Light 14h 34m
Length of Day
13h 34m
Tomorrow will be 2m 48s longer.
Waning Gibbous, 84% of the Moon is Illuminated
Today
Waning Gibbous
Apr 22
Last Quarter
Apr 29
New
May 6
First Quarter
May 14
Full

Today's Extremes

State Highs State Lows

Community

  • Cloudy spring view
    Cloudy spring view
  • Old barn
    Old barn
  • What's for Lunch?
    What's for Lunch?
  • SUNRISE THROUGH THE TREES.
    SUNRISE THROUGH THE TREES.
  • Dog Wood Blossoms
    Dog Wood Blossoms

WunderPhotos

Upload Photos

1,702,570 photos uploaded!

Nearby

Snow Depth

Station Depth Elevation
Casper Mountain 51 in 7850 ft
Middle Powder 57 in 7760 ft
Grave Springs 45 in 8550 ft
Bear Trap Meadow 34 in 8200 ft
Reno Hill 58 in 8500 ft

Coastal Water Temperatures

Place Temperature
No Stations Reporting

Earthquake Activity

City Distance Mag. Time & Date
No recent earthquake activity has been reported nearby.
Minimum magnitude displayed is 2.5.

Nearby Weather Stations

There are no personal weather stations in this area.

What do you think?

We're not finished. Please let us know what you like, what you don't like, and what you are still missing.